Le Claire, Iowa
Current Conditions -  °F | °C
As of 3:52 AM on Sunday 25 Jan 2015 (Local Time) from KDVN Reporting Station
Overcast Overcast  
Wind Chill: 25°   Ceiling: 6500
Heat Index: 34°   Visibility: 9mi
Dew Point: 31°   Wind: 12mph
Humidity: 89%   Direction: 70°ENE
Pressure: 29.59"   Gusts: NA
Location:  41.6°N, 90.35°W
Report Text: KDVN 250952Z AUTO 07010KT 9SM BKN065 OVC085 01/M01 A2959 RMK AO2 SLP025 T00111006
Loading
Personal Weather Stations






























Interactive Weather Map New forecast layout! Learn more

10-Day Weather Forecast

Advertisements
Track Severe Weather on mobile